• Join FlightAware (Why Join?)
  • Login
  • US Flag 
02:29AM EDT


 

Airport Tracker/Info


-or-


 

Live Flight TrackerFlight Track Log ✈ DAL3720 ✈ 23-Apr-2013 ✈ KCLT - KCVG

Flight Track Log - Related Links

Times and Time Zones

All times are in EDT time to prevent confusion due to time zone crossing. See the DAL3720 flight status page for this flight to view local times or setup timezone preferences in your user account.

Time Position Orientation Groundspeed Altitude Reporting Facility
EDT Latitude Longitude Course Direction KTS MPH feet Rate Location/Type
07:14AM 35.2408 -80.9600 13° North 167 192 2,100  Level FAA TRACON SMA TRACON (SMA)
07:14AM 35.2550 -80.9700 330° Northwest 201 231 2,500 1,500 Climbing FAA TRACON SMA TRACON (SMA)
07:15AM 35.2706 -80.9833 325° Northwest 227 261 3,100 1,920 Climbing FAA TRACON SMA TRACON (SMA)
07:15AM 35.2903 -81.0003 325° Northwest 248 285 3,800 2,460 Climbing FAA TRACON SMA TRACON (SMA)
07:15AM 35.3178 -81.0033 355° North 244 281 4,900 2,340 Climbing FAA TRACON SMA TRACON (SMA)
07:16AM 35.3394 -80.9983 11° North 260 299 5,500 3,240 Climbing FAA TRACON SMA TRACON (SMA)
07:16AM 35.3614 -80.9933 11° North 254 292 6,900 3,840 Climbing FAA TRACON SMA TRACON (SMA)
07:16AM 35.3822 -80.9883 11° North 250 288 7,900 2,400 Climbing FAA TRACON SMA TRACON (SMA)
07:17AM 35.2658 -81.2167 North  Level FlightAware Approximate
07:17AM 35.4039 -80.9831 11° North 256 295 8,500  Level FAA TRACON SMA TRACON (SMA)
07:17AM 35.4267 -80.9775 11° North 264 304 9,300 2,520 Climbing FAA TRACON SMA TRACON (SMA)
07:17AM 35.4556 -80.9686 14° North 277 319 10,200 2,220 Climbing FAA TRACON SMA TRACON (SMA)
07:18AM 35.3390 -81.0793 52° Northeast  Level FlightAware Approximate
07:18AM 35.4794 -80.9603 16° North 286 329 10,800  Level FAA TRACON SMA TRACON (SMA)
07:18AM 35.5044 -80.9528 14° North 296 341 11,300 1,320 Climbing FAA TRACON SMA TRACON (SMA)
07:18AM 35.5372 -80.9428 14° North 313 360 11,700 1,020 Climbing FAA TRACON SMA TRACON (SMA)
07:19AM 35.4309 -80.9625 13° North  Level FlightAware Approximate
07:19AM 35.5650 -80.9342 14° North 331 381 12,000  Level FAA TRACON SMA TRACON (SMA)
07:19AM 35.6014 -80.9225 15° North 348 400 12,600 1,500 Climbing FAA TRACON SMA TRACON (SMA)
07:19AM 35.6317 -80.9178 North 358 412 13,000 1,320 Climbing FAA TRACON SMA TRACON (SMA)
07:20AM 35.6606 -80.9303 341° North 362 417 13,500 1,800 Climbing FAA TRACON SMA TRACON (SMA)
07:20AM 35.6942 -80.9533 331° Northwest 362 417 14,200 1,920 Climbing FAA TRACON SMA TRACON (SMA)
07:20AM 35.7211 -80.9708 332° Northwest 358 412 14,800 1,800 Climbing FAA TRACON SMA TRACON (SMA)
07:21AM 35.7483 -80.9892 331° Northwest 360 414 15,400 2,100 Climbing FAA TRACON SMA TRACON (SMA)
07:21AM 35.7819 -81.0117 331° Northwest 358 412 16,200 1,200 Climbing FAA TRACON SMA TRACON (SMA)
07:21AM 35.7819 -81.0117 31° Northeast 358 412 16,200 1,500 Level FAA TRACON SMA TRACON (SMA)
07:22AM 35.8722 -81.0686 333° Northwest 354 407 17,800 2,040 Climbing Atlanta Center
07:23AM 35.9569 -81.1244 332° Northwest 354 407 19,800 1,500 Climbing Atlanta Center
07:24AM 36.0481 -81.1831 333° Northwest 359 413 20,800 960 Climbing Atlanta Center
07:25AM 36.1389 -81.2414 333° Northwest 359 413 21,800 960 Climbing Atlanta Center
07:26AM 36.2342 -81.3025 333° Northwest 376 433 22,800 960 Climbing Atlanta Center
07:27AM 36.3294 -81.3611 334° Northwest 376 433 23,800 960 Climbing Atlanta Center
07:28AM 36.3839 -81.4703 302° West 359 413 24,800 960 Climbing Atlanta Center
07:29AM 36.4239 -81.5875 293° West 364 419 25,800 600 Climbing Atlanta Center
07:30AM 36.4658 -81.7103 293° West 380 437 26,000 60 Climbing Atlanta Center
07:31AM 36.5033 -81.8203 293° West 391 450 26,000  Level Atlanta Center
07:32AM 36.5456 -81.9636 290° West 402 463 26,000  Level Atlanta Center
07:33AM 36.5872 -82.0919 292° West 408 470 26,000  Level Atlanta Center
07:34AM 36.6244 -82.2075 292° West 408 470 26,000  Level Atlanta Center
07:36AM 36.7083 -82.4683 292° West 411 473 26,000  Level Indianapolis Center
07:37AM 36.7508 -82.6011 292° West 410 472 26,000  Level Indianapolis Center
07:38AM 36.7972 -82.7306 294° West 408 470 26,000  Level Indianapolis Center
07:39AM 36.8644 -82.8456 306° West 407 468 26,000  Level Indianapolis Center
07:40AM 36.9281 -82.9525 307° West 412 474 26,000  Level Indianapolis Center
07:41AM 37.0069 -83.0878 306° West 414 476 26,000 -420 Level Indianapolis Center
07:42AM 37.0725 -83.1989 307° West 401 461 25,200 -1,020 Descending Indianapolis Center
07:43AM 37.1317 -83.2997 306° West 364 419 24,000 -600 Descending Indianapolis Center
07:44AM 37.1908 -83.4017 306° West 360 414 24,000  Level Indianapolis Center
07:45AM 37.2503 -83.5033 306° West 361 415 24,000 -60 Level Indianapolis Center
07:46AM 37.3075 -83.6028 306° West 353 406 23,900 -780 Descending Indianapolis Center
07:47AM 37.3967 -83.6383 342° North 361 415 22,500 -1,620 Descending Indianapolis Center
07:48AM 37.5094 -83.6139 10° North 358 412 20,700 -1,620 Descending Indianapolis Center
07:49AM 37.6158 -83.5928 North 379 436 19,200 -1,380 Descending Indianapolis Center
07:50AM 37.7133 -83.6417 338° Northwest 389 448 17,900 -1,080 Descending Indianapolis Center
07:51AM 37.8069 -83.7072 331° Northwest 385 443 17,100 -900 Descending Indianapolis Center
07:52AM 37.9017 -83.7714 332° Northwest 386 444 16,100 -1,020 Descending Indianapolis Center
07:53AM 37.9950 -83.8397 330° Northwest 387 445 15,100 -1,020 Descending Indianapolis Center
07:54AM 38.0897 -83.9069 331° Northwest 387 445 14,100 -1,020 Descending Indianapolis Center
07:55AM 38.1842 -83.9728 331° Northwest 386 444 13,100 -1,080 Descending Indianapolis Center
07:56AM 38.2925 -84.0511 330° Northwest 382 440 11,900 -1,020 Descending Indianapolis Center
07:57AM 38.3853 -84.1186 330° Northwest 382 440 11,100 -480 Descending Indianapolis Center
07:58AM 38.4786 -84.1847 331° Northwest 382 440 11,000 -60 Descending Indianapolis Center
07:59AM 38.5700 -84.2519 330° Northwest 381 438 11,000  Level Indianapolis Center
08:00AM 38.6542 -84.3269 325° Northwest 380 437 11,000  Level Indianapolis Center
08:01AM 38.7431 -84.4025 326° Northwest 380 437 11,000 -540 Level Indianapolis Center
08:03AM 38.8211 -84.4689 326° Northwest 335 386 10,000 -1,020 Descending Indianapolis Center
08:04AM 38.8919 -84.5108 335° Northwest 305 351 9,000 -720 Descending Indianapolis Center
08:04AM 38.9333 -84.5167 354° North 277 319 9,100 -660 Climbing Cincinnati TRACON
08:05AM 39.0000 -84.5167 360° North 276 318 8,200 -1,200 Descending Cincinnati TRACON
08:06AM 39.0667 -84.5333 349° North 231 266 6,700 -1,560 Descending Cincinnati TRACON
08:07AM 39.1333 -84.5500 349° North 207 238 5,000 -1,500 Descending Cincinnati TRACON
08:08AM 39.1542 -84.5797 312° West 209 241 4,000 -1,440 Descending Indianapolis Center